Time;durP1;ratioP1;P1;durP2;ratioP2;P2;SDS_P1;SDS_P2;PMS_P1;PMS_P2;Temp;Humidity;BMP_temperature;BMP_pressure;BME280_temperature;BME280_humidity;BME280_pressure;Samples;Min_cycle;Max_cycle;Signal;HPM_P1;HPM_P2
2022/01/16 00:00:17;;;;;;;7.75;3.38;;;;;;;;;;5003285;28;20038;-72
2022/01/16 00:05:23;;;;;;;6.85;2.80;;;;;;;;;;5005982;28;20062;-71
2022/01/16 00:07:49;;;;;;;5.03;2.47;;;;;;;;;;5006263;28;20461;-73
2022/01/16 00:10:19;;;;;;;5.28;2.40;;;;;;;;;;5003527;28;20057;-73
2022/01/16 00:12:48;;;;;;;6.78;2.45;;;;;;;;;;4992128;28;20109;-72
2022/01/16 00:15:19;;;;;;;7.13;2.60;;;;;;;;;;4993512;28;20022;-72
2022/01/16 00:18:30;;;;;;;6.78;2.40;;;;;;;;;;4995545;28;20010;-73
2022/01/16 00:20:34;;;;;;;6.25;2.22;;;;;;;;;;4995570;28;20108;-71
2022/01/16 00:23:03;;;;;;;5.57;2.30;;;;;;;;;;4990673;28;20042;-76
2022/01/16 00:25:29;;;;;;;6.53;2.50;;;;;;;;;;4985484;28;20038;-71
2022/01/16 00:27:55;;;;;;;6.15;2.50;;;;;;;;;;4995488;28;20777;-71
2022/01/16 00:30:21;;;;;;;4.80;2.20;;;;;;;;;;4988460;28;20034;-73
2022/01/16 00:32:48;;;;;;;5.25;2.20;;;;;;;;;;4983170;28;20650;-75
2022/01/16 00:35:14;;;;;;;10.05;3.13;;;;;;;;;;4995337;28;20057;-71
2022/01/16 00:37:41;;;;;;;7.65;2.85;;;;;;;;;;4998253;28;20501;-74
2022/01/16 00:40:08;;;;;;;6.82;2.40;;;;;;;;;;4984584;28;20015;-71
2022/01/16 00:42:34;;;;;;;4.97;2.28;;;;;;;;;;4985526;28;20141;-72
2022/01/16 00:45:01;;;;;;;8.50;2.33;;;;;;;;;;4996822;28;20165;-71
2022/01/16 00:47:27;;;;;;;5.38;2.25;;;;;;;;;;5001316;28;20065;-72
2022/01/16 00:49:53;;;;;;;5.80;2.15;;;;;;;;;;4988688;28;20046;-71
2022/01/16 00:52:19;;;;;;;6.13;3.03;;;;;;;;;;4992958;28;20069;-72
2022/01/16 00:54:45;;;;;;;3.63;1.90;;;;;;;;;;5000656;28;20454;-76
2022/01/16 00:57:12;;;;;;;6.05;2.20;;;;;;;;;;4998224;28;20026;-70
2022/01/16 00:59:38;;;;;;;5.57;2.22;;;;;;;;;;4989018;28;20164;-71
2022/01/16 01:02:04;;;;;;;4.75;2.08;;;;;;;;;;4996846;28;20022;-70
2022/01/16 01:04:30;;;;;;;5.15;1.95;;;;;;;;;;4981264;28;20585;-72
2022/01/16 01:06:57;;;;;;;7.03;2.17;;;;;;;;;;4987082;28;20639;-75
2022/01/16 01:09:24;;;;;;;4.38;2.10;;;;;;;;;;5003373;28;20033;-71
2022/01/16 01:11:50;;;;;;;3.80;1.90;;;;;;;;;;5001259;28;20026;-72
2022/01/16 01:19:16;;;;;;;8.45;2.42;;;;;;;;;;4988571;28;20027;-71
2022/01/16 01:21:42;;;;;;;6.20;2.70;;;;;;;;;;4987541;28;20030;-71
2022/01/16 01:24:08;;;;;;;6.80;2.65;;;;;;;;;;4991159;28;20022;-71
2022/01/16 01:26:45;;;;;;;8.85;2.97;;;;;;;;;;4989608;28;20841;-70
2022/01/16 01:29:16;;;;;;;5.22;2.22;;;;;;;;;;4995955;28;20072;-71
2022/01/16 01:31:43;;;;;;;5.40;2.40;;;;;;;;;;4995989;28;20557;-72
2022/01/16 01:34:09;;;;;;;6.82;2.28;;;;;;;;;;4997467;28;20247;-75
2022/01/16 01:36:35;;;;;;;6.95;3.00;;;;;;;;;;4996188;28;20026;-71
2022/01/16 01:39:01;;;;;;;4.72;2.33;;;;;;;;;;4997967;28;20491;-71
2022/01/16 01:41:29;;;;;;;6.97;2.20;;;;;;;;;;4997255;28;20030;-71
2022/01/16 01:52:10;;;;;;;3.90;2.15;;;;;;;;;;5000232;28;20554;-71
2022/01/16 01:54:36;;;;;;;3.05;1.70;;;;;;;;;;4991444;28;20018;-71
2022/01/16 01:57:02;;;;;;;10.93;1.85;;;;;;;;;;4999310;28;20026;-72
2022/01/16 01:59:28;;;;;;;5.57;1.85;;;;;;;;;;4994858;28;20101;-72
2022/01/16 02:01:54;;;;;;;4.13;1.85;;;;;;;;;;4995410;28;20036;-71
2022/01/16 02:04:21;;;;;;;3.85;2.08;;;;;;;;;;4994954;28;20061;-71
2022/01/16 02:06:47;;;;;;;4.68;1.85;;;;;;;;;;4997673;28;20033;-73
2022/01/16 02:09:13;;;;;;;10.88;3.10;;;;;;;;;;4988168;28;20426;-71
2022/01/16 02:11:39;;;;;;;3.75;2.13;;;;;;;;;;4995005;28;20030;-71
2022/01/16 02:14:28;;;;;;;6.57;2.00;;;;;;;;;;4997721;28;20080;-71
2022/01/16 02:35:51;;;;;;;3.90;1.90;;;;;;;;;;4994263;28;20038;-71
2022/01/16 02:38:17;;;;;;;4.32;1.70;;;;;;;;;;4997057;28;20116;-70
2022/01/16 02:40:52;;;;;;;4.95;2.03;;;;;;;;;;4995825;28;20110;-70
2022/01/16 02:43:28;;;;;;;7.28;2.10;;;;;;;;;;4995669;28;20503;-71
2022/01/16 02:46:09;;;;;;;4.43;1.75;;;;;;;;;;5000656;28;20079;-71
2022/01/16 02:48:35;;;;;;;5.13;2.00;;;;;;;;;;5002292;28;20519;-71
2022/01/16 02:51:01;;;;;;;6.35;2.10;;;;;;;;;;4995676;28;20034;-71
2022/01/16 02:53:27;;;;;;;3.63;1.77;;;;;;;;;;4995556;28;20486;-71
2022/01/16 02:55:53;;;;;;;4.68;2.35;;;;;;;;;;5001202;28;20018;-71
2022/01/16 02:58:20;;;;;;;5.63;1.83;;;;;;;;;;4997283;28;20034;-71
2022/01/16 03:00:46;;;;;;;4.25;1.83;;;;;;;;;;4997984;28;20026;-71
2022/01/16 03:03:12;;;;;;;7.90;1.92;;;;;;;;;;4996164;28;20053;-72
2022/01/16 03:05:38;;;;;;;3.55;1.63;;;;;;;;;;5000518;28;20038;-71
2022/01/16 03:08:05;;;;;;;4.93;1.77;;;;;;;;;;4997719;28;20026;-71
2022/01/16 03:13:04;;;;;;;7.10;2.20;;;;;;;;;;4998064;28;20038;-73
2022/01/16 03:15:30;;;;;;;5.28;1.83;;;;;;;;;;4998023;28;20026;-72
2022/01/16 03:23:11;;;;;;;4.95;1.75;;;;;;;;;;4999013;28;20041;-71
2022/01/16 03:25:37;;;;;;;4.55;1.60;;;;;;;;;;4999546;28;20062;-71
2022/01/16 03:28:04;;;;;;;7.05;2.63;;;;;;;;;;5001565;28;20539;-70
2022/01/16 03:30:30;;;;;;;8.52;2.22;;;;;;;;;;5002350;28;20018;-70
2022/01/16 03:32:56;;;;;;;5.75;2.15;;;;;;;;;;5001940;28;20026;-71
2022/01/16 03:35:23;;;;;;;4.13;1.75;;;;;;;;;;4999640;28;20089;-70
2022/01/16 03:37:49;;;;;;;5.15;1.88;;;;;;;;;;4995699;28;20042;-70
2022/01/16 03:40:16;;;;;;;6.13;1.88;;;;;;;;;;5000607;28;20551;-71
2022/01/16 03:42:42;;;;;;;5.90;2.10;;;;;;;;;;5000265;28;20030;-71
2022/01/16 03:45:09;;;;;;;6.22;2.10;;;;;;;;;;5000291;28;20034;-70
2022/01/16 03:47:36;;;;;;;3.60;1.92;;;;;;;;;;5000065;28;20406;-70
2022/01/16 03:50:02;;;;;;;7.95;2.33;;;;;;;;;;5002909;28;20490;-71
2022/01/16 03:52:29;;;;;;;5.20;1.83;;;;;;;;;;4998442;28;20084;-74
2022/01/16 03:54:55;;;;;;;9.50;1.88;;;;;;;;;;4991732;28;20039;-71
2022/01/16 03:57:21;;;;;;;5.28;1.95;;;;;;;;;;4997730;28;20022;-71
2022/01/16 03:59:47;;;;;;;3.67;1.80;;;;;;;;;;4999068;28;20201;-71
2022/01/16 04:02:14;;;;;;;7.07;2.30;;;;;;;;;;4989017;28;20032;-72
2022/01/16 04:04:40;;;;;;;6.50;1.98;;;;;;;;;;4990581;28;20056;-71
2022/01/16 04:07:08;;;;;;;5.60;2.50;;;;;;;;;;4984870;28;20076;-71
2022/01/16 04:09:34;;;;;;;7.35;2.08;;;;;;;;;;4985062;28;20018;-71
2022/01/16 04:12:01;;;;;;;7.10;2.53;;;;;;;;;;4982966;28;20109;-71
2022/01/16 04:17:13;;;;;;;3.60;2.00;;;;;;;;;;4984763;28;20026;-70
2022/01/16 04:19:39;;;;;;;3.58;2.13;;;;;;;;;;4984801;28;20463;-71
2022/01/16 04:22:05;;;;;;;5.75;2.05;;;;;;;;;;4984725;28;20030;-71
2022/01/16 04:24:33;;;;;;;4.30;2.00;;;;;;;;;;4985516;28;20109;-71
2022/01/16 04:26:59;;;;;;;4.50;1.80;;;;;;;;;;4983006;28;20026;-71
2022/01/16 04:29:25;;;;;;;5.30;1.80;;;;;;;;;;4983632;28;20022;-71
2022/01/16 04:31:51;;;;;;;5.15;2.35;;;;;;;;;;4984635;28;20029;-71
2022/01/16 04:34:17;;;;;;;5.63;2.00;;;;;;;;;;4984622;28;20038;-71
2022/01/16 04:36:44;;;;;;;4.07;1.90;;;;;;;;;;4982970;28;20026;-71
2022/01/16 04:39:15;;;;;;;3.92;1.80;;;;;;;;;;4984857;28;20587;-71
2022/01/16 04:44:27;;;;;;;3.97;2.00;;;;;;;;;;4984362;28;20069;-71
2022/01/16 04:46:53;;;;;;;7.05;1.92;;;;;;;;;;5002116;28;20030;-70
2022/01/16 04:49:19;;;;;;;6.93;2.45;;;;;;;;;;5003486;28;20026;-71
2022/01/16 04:51:46;;;;;;;5.55;2.20;;;;;;;;;;5003889;28;20040;-70
2022/01/16 04:54:12;;;;;;;6.38;2.33;;;;;;;;;;5003572;28;20059;-70
2022/01/16 04:56:38;;;;;;;5.95;1.98;;;;;;;;;;5003363;28;20076;-70
2022/01/16 04:59:04;;;;;;;4.93;2.08;;;;;;;;;;5003388;28;20026;-70
2022/01/16 05:01:31;;;;;;;4.88;2.22;;;;;;;;;;5001962;28;20022;-70
2022/01/16 05:03:57;;;;;;;7.63;2.13;;;;;;;;;;5003434;28;20034;-70
2022/01/16 05:06:23;;;;;;;4.45;1.83;;;;;;;;;;4992972;28;20042;-70
2022/01/16 05:08:50;;;;;;;7.15;2.25;;;;;;;;;;4984386;28;20277;-72
2022/01/16 05:11:21;;;;;;;5.57;2.50;;;;;;;;;;4999924;28;20117;-72
2022/01/16 05:18:58;;;;;;;5.47;2.42;;;;;;;;;;5000588;28;20044;-70
2022/01/16 05:21:25;;;;;;;4.88;2.20;;;;;;;;;;4995564;28;20536;-70
2022/01/16 05:23:51;;;;;;;8.18;2.40;;;;;;;;;;5001240;28;20029;-71
2022/01/16 05:26:19;;;;;;;5.53;2.50;;;;;;;;;;4999515;28;20053;-70
2022/01/16 05:28:46;;;;;;;6.25;2.30;;;;;;;;;;5001250;28;20026;-70
2022/01/16 05:31:12;;;;;;;7.65;2.30;;;;;;;;;;5000679;28;20088;-70
2022/01/16 05:33:38;;;;;;;5.03;2.13;;;;;;;;;;4999937;28;20017;-73
2022/01/16 05:36:05;;;;;;;3.15;2.15;;;;;;;;;;4999486;28;20030;-70
2022/01/16 05:38:31;;;;;;;2.83;1.88;;;;;;;;;;5000554;28;20036;-70
2022/01/16 05:40:57;;;;;;;3.45;1.95;;;;;;;;;;4998597;28;20060;-70
2022/01/16 05:43:23;;;;;;;5.25;2.03;;;;;;;;;;4988221;28;20408;-71
2022/01/16 05:45:49;;;;;;;4.53;1.83;;;;;;;;;;4980677;28;20904;-70
2022/01/16 05:48:15;;;;;;;6.65;2.30;;;;;;;;;;4980901;28;20478;-71
2022/01/16 05:50:41;;;;;;;5.85;2.10;;;;;;;;;;4981679;28;20034;-71
2022/01/16 05:53:08;;;;;;;6.22;1.70;;;;;;;;;;4981152;28;20069;-69
2022/01/16 05:55:36;;;;;;;4.65;1.95;;;;;;;;;;4979595;28;20121;-70
2022/01/16 05:58:07;;;;;;;4.10;1.83;;;;;;;;;;4986389;28;20091;-70
2022/01/16 06:00:33;;;;;;;3.17;1.73;;;;;;;;;;5000350;28;20086;-70
2022/01/16 06:03:00;;;;;;;7.20;2.13;;;;;;;;;;5000267;28;20105;-71
2022/01/16 06:05:26;;;;;;;3.50;2.03;;;;;;;;;;4997869;28;20046;-71
2022/01/16 06:07:57;;;;;;;9.20;2.00;;;;;;;;;;4981104;28;20035;-70
2022/01/16 06:10:23;;;;;;;2.83;1.45;;;;;;;;;;4979401;28;20037;-71
2022/01/16 06:12:51;;;;;;;8.32;2.35;;;;;;;;;;4980826;28;20102;-70
2022/01/16 06:15:17;;;;;;;3.90;1.70;;;;;;;;;;4980765;28;20038;-70
2022/01/16 06:17:43;;;;;;;7.22;2.25;;;;;;;;;;4978461;28;20546;-70
2022/01/16 06:20:10;;;;;;;8.27;1.95;;;;;;;;;;4980149;28;20048;-71
2022/01/16 06:22:36;;;;;;;3.58;1.90;;;;;;;;;;4979819;28;20030;-70
2022/01/16 06:25:02;;;;;;;2.78;2.03;;;;;;;;;;4980429;28;20041;-69
2022/01/16 06:27:28;;;;;;;4.53;1.75;;;;;;;;;;4994249;28;20107;-70
2022/01/16 06:29:54;;;;;;;6.28;2.22;;;;;;;;;;5000033;28;20038;-70
2022/01/16 06:32:20;;;;;;;4.47;1.70;;;;;;;;;;4998433;28;20021;-72
2022/01/16 06:34:46;;;;;;;3.90;2.20;;;;;;;;;;5000090;28;20548;-74
2022/01/16 06:37:13;;;;;;;5.90;2.15;;;;;;;;;;5000314;28;20046;-70
2022/01/16 06:39:39;;;;;;;4.97;1.48;;;;;;;;;;4999888;28;20032;-70
2022/01/16 06:42:05;;;;;;;3.45;1.65;;;;;;;;;;4997900;28;20108;-70
2022/01/16 06:44:31;;;;;;;4.47;1.85;;;;;;;;;;4999637;28;20030;-70
2022/01/16 06:46:57;;;;;;;4.85;1.98;;;;;;;;;;4996423;28;20424;-70
2022/01/16 06:49:24;;;;;;;3.97;1.80;;;;;;;;;;4980329;28;20034;-70
2022/01/16 06:51:50;;;;;;;4.72;1.98;;;;;;;;;;4979937;28;20065;-70
2022/01/16 06:54:16;;;;;;;6.15;1.67;;;;;;;;;;4980302;28;20026;-71
2022/01/16 06:56:42;;;;;;;7.95;2.30;;;;;;;;;;4978108;28;20045;-71
2022/01/16 06:59:08;;;;;;;6.60;2.08;;;;;;;;;;4994992;28;20034;-70
2022/01/16 07:01:35;;;;;;;3.33;1.80;;;;;;;;;;4999723;28;20030;-70
2022/01/16 07:04:01;;;;;;;2.90;1.80;;;;;;;;;;4999832;28;20032;-70
2022/01/16 07:06:27;;;;;;;4.32;2.90;;;;;;;;;;4997960;28;20383;-70
2022/01/16 07:08:53;;;;;;;3.13;1.88;;;;;;;;;;4996860;28;20609;-72
2022/01/16 07:11:19;;;;;;;3.33;1.67;;;;;;;;;;4999760;28;20060;-70
2022/01/16 07:13:45;;;;;;;6.53;2.05;;;;;;;;;;4997256;28;20022;-70
2022/01/16 07:16:12;;;;;;;4.95;2.10;;;;;;;;;;4982573;28;20073;-70
2022/01/16 07:18:38;;;;;;;4.78;2.17;;;;;;;;;;4981865;28;20069;-70
2022/01/16 07:21:12;;;;;;;6.63;2.00;;;;;;;;;;4981816;28;20035;-70
2022/01/16 07:23:38;;;;;;;4.00;2.00;;;;;;;;;;4980677;28;20038;-70
2022/01/16 07:26:05;;;;;;;6.68;2.50;;;;;;;;;;4981723;28;20103;-70
2022/01/16 07:28:31;;;;;;;7.38;2.53;;;;;;;;;;4981947;28;20026;-70
2022/01/16 07:30:57;;;;;;;5.75;2.30;;;;;;;;;;4989101;28;20030;-71
2022/01/16 07:33:23;;;;;;;4.55;2.33;;;;;;;;;;5004263;28;20169;-69
2022/01/16 07:35:49;;;;;;;4.97;1.95;;;;;;;;;;5004136;28;20026;-70
2022/01/16 07:38:15;;;;;;;5.38;2.28;;;;;;;;;;5004791;28;20022;-70
2022/01/16 07:40:41;;;;;;;6.20;2.08;;;;;;;;;;5004517;28;20022;-73
2022/01/16 07:43:08;;;;;;;6.47;2.47;;;;;;;;;;5004479;28;20023;-73
2022/01/16 07:45:34;;;;;;;7.35;2.38;;;;;;;;;;5005264;28;20160;-71
2022/01/16 07:48:01;;;;;;;5.68;2.20;;;;;;;;;;5003278;28;20410;-71
2022/01/16 07:50:27;;;;;;;7.00;1.83;;;;;;;;;;5004624;28;20072;-71
2022/01/16 07:52:53;;;;;;;4.80;2.17;;;;;;;;;;5004413;28;20028;-71
2022/01/16 07:55:22;;;;;;;7.75;2.33;;;;;;;;;;5002663;28;20034;-71
2022/01/16 07:57:49;;;;;;;6.70;2.30;;;;;;;;;;4985078;28;20026;-71
2022/01/16 08:00:15;;;;;;;6.15;1.80;;;;;;;;;;4984533;28;20084;-73
2022/01/16 08:02:41;;;;;;;4.00;1.83;;;;;;;;;;4985033;28;20581;-76
2022/01/16 08:05:08;;;;;;;3.90;2.30;;;;;;;;;;4987406;28;20045;-76
2022/01/16 08:07:34;;;;;;;3.95;2.40;;;;;;;;;;4998580;28;20088;-73
2022/01/16 08:10:00;;;;;;;4.30;2.28;;;;;;;;;;4999508;28;20038;-73
2022/01/16 08:12:26;;;;;;;7.30;2.70;;;;;;;;;;5001886;28;20471;-73
2022/01/16 08:14:52;;;;;;;6.03;2.95;;;;;;;;;;5001998;28;20034;-73
2022/01/16 08:17:18;;;;;;;4.72;2.40;;;;;;;;;;5000649;28;20045;-73
2022/01/16 08:19:44;;;;;;;5.03;1.95;;;;;;;;;;5000654;28;20034;-73
2022/01/16 08:22:10;;;;;;;8.88;2.35;;;;;;;;;;5001441;28;20030;-72
2022/01/16 08:24:37;;;;;;;6.60;2.10;;;;;;;;;;5002286;28;20483;-73
2022/01/16 08:27:03;;;;;;;5.47;3.17;;;;;;;;;;5000381;28;20518;-73
2022/01/16 08:29:29;;;;;;;7.60;3.58;;;;;;;;;;5001453;28;20070;-73
2022/01/16 08:31:55;;;;;;;8.65;4.32;;;;;;;;;;4984073;28;20403;-73
2022/01/16 08:34:21;;;;;;;11.15;4.88;;;;;;;;;;4980321;28;20541;-73
2022/01/16 08:36:47;;;;;;;12.02;4.90;;;;;;;;;;4982241;28;20030;-73
2022/01/16 08:39:14;;;;;;;8.82;5.07;;;;;;;;;;4980291;28;20031;-73
2022/01/16 08:41:41;;;;;;;9.90;4.93;;;;;;;;;;4981286;28;20034;-74
2022/01/16 08:44:08;;;;;;;9.10;5.60;;;;;;;;;;4982621;28;20038;-73
2022/01/16 08:46:34;;;;;;;8.52;5.22;;;;;;;;;;5003530;28;20543;-72
2022/01/16 08:49:01;;;;;;;14.70;5.85;;;;;;;;;;5003637;28;20494;-73
2022/01/16 08:51:28;;;;;;;8.38;5.10;;;;;;;;;;5002002;28;20033;-73
2022/01/16 08:53:54;;;;;;;11.02;4.75;;;;;;;;;;5003210;28;20389;-73
2022/01/16 08:56:20;;;;;;;8.43;5.18;;;;;;;;;;5003458;28;20486;-73
2022/01/16 08:58:46;;;;;;;14.77;6.03;;;;;;;;;;5002804;28;20030;-72
2022/01/16 09:01:12;;;;;;;8.70;5.13;;;;;;;;;;5003130;28;20026;-72
2022/01/16 09:03:38;;;;;;;6.05;4.55;;;;;;;;;;5001642;28;20037;-73
2022/01/16 09:06:05;;;;;;;12.27;4.45;;;;;;;;;;5002867;28;20044;-73
2022/01/16 09:08:31;;;;;;;6.72;4.15;;;;;;;;;;5003467;28;20050;-72
2022/01/16 09:10:58;;;;;;;5.65;2.83;;;;;;;;;;5001442;28;20033;-73
2022/01/16 09:13:24;;;;;;;8.68;4.68;;;;;;;;;;5003385;28;20546;-73
2022/01/16 09:15:51;;;;;;;6.05;3.47;;;;;;;;;;5001634;28;20486;-72
2022/01/16 09:18:18;;;;;;;6.63;3.38;;;;;;;;;;5003066;28;20124;-73
2022/01/16 09:20:44;;;;;;;7.18;3.40;;;;;;;;;;5002087;28;20036;-73
2022/01/16 09:23:10;;;;;;;5.22;3.70;;;;;;;;;;5002803;28;20030;-73
2022/01/16 09:25:37;;;;;;;7.97;3.20;;;;;;;;;;5002413;28;20732;-73
2022/01/16 09:28:03;;;;;;;6.93;2.80;;;;;;;;;;5002037;28;20402;-73
2022/01/16 09:30:30;;;;;;;7.88;3.03;;;;;;;;;;5002554;28;20029;-72
2022/01/16 09:32:56;;;;;;;6.82;3.30;;;;;;;;;;5001582;28;20040;-72
2022/01/16 09:35:23;;;;;;;5.97;3.10;;;;;;;;;;5002428;28;20030;-72
2022/01/16 09:37:50;;;;;;;5.25;3.45;;;;;;;;;;5002568;28;20081;-73
2022/01/16 09:40:18;;;;;;;9.88;6.38;;;;;;;;;;4999977;28;20030;-73
2022/01/16 09:42:44;;;;;;;9.02;5.00;;;;;;;;;;4986534;28;20022;-73
2022/01/16 09:45:11;;;;;;;5.78;2.92;;;;;;;;;;4982810;28;20042;-73
2022/01/16 09:47:38;;;;;;;5.20;2.10;;;;;;;;;;4979687;28;20429;-73
2022/01/16 09:50:05;;;;;;;5.03;2.97;;;;;;;;;;4982866;28;20041;-73
2022/01/16 09:52:38;;;;;;;6.97;3.83;;;;;;;;;;5000830;28;20117;-73
2022/01/16 09:55:05;;;;;;;6.30;3.05;;;;;;;;;;5002192;28;20100;-72
2022/01/16 09:57:31;;;;;;;7.55;2.58;;;;;;;;;;5002954;28;20041;-73
2022/01/16 09:59:58;;;;;;;8.32;4.05;;;;;;;;;;5000336;28;20671;-73
2022/01/16 10:02:24;;;;;;;6.60;3.80;;;;;;;;;;5001899;28;20156;-73
2022/01/16 10:04:50;;;;;;;6.15;2.60;;;;;;;;;;5002490;28;20040;-73
2022/01/16 10:07:17;;;;;;;6.45;3.22;;;;;;;;;;4993950;28;20066;-74
2022/01/16 10:09:46;;;;;;;6.70;2.97;;;;;;;;;;4982887;28;20031;-74
2022/01/16 10:12:16;;;;;;;6.22;3.00;;;;;;;;;;4981093;28;20028;-73
2022/01/16 10:14:49;;;;;;;7.75;2.63;;;;;;;;;;4982748;28;20088;-73
2022/01/16 10:17:23;;;;;;;5.18;2.38;;;;;;;;;;4982658;28;20026;-73
2022/01/16 10:20:10;;;;;;;5.93;1.83;;;;;;;;;;4982808;28;20038;-72
2022/01/16 10:22:39;;;;;;;5.97;2.60;;;;;;;;;;4986454;28;20616;-72
2022/01/16 10:25:05;;;;;;;4.88;2.83;;;;;;;;;;4982396;28;20039;-72
2022/01/16 10:27:34;;;;;;;8.00;2.83;;;;;;;;;;4981299;28;20031;-72
2022/01/16 10:30:03;;;;;;;6.47;2.42;;;;;;;;;;4981425;28;20092;-71
2022/01/16 10:32:33;;;;;;;5.25;2.30;;;;;;;;;;4982011;28;20649;-72
2022/01/16 10:35:08;;;;;;;8.60;3.55;;;;;;;;;;4982406;28;20036;-72
2022/01/16 10:37:35;;;;;;;6.32;4.30;;;;;;;;;;4994277;28;20057;-71
2022/01/16 10:40:01;;;;;;;6.78;3.95;;;;;;;;;;4993807;28;20697;-71
2022/01/16 10:42:29;;;;;;;6.10;3.60;;;;;;;;;;4981682;28;20045;-71
2022/01/16 10:44:59;;;;;;;6.82;3.50;;;;;;;;;;4980993;28;20583;-71
2022/01/16 10:47:28;;;;;;;5.82;3.08;;;;;;;;;;4980366;28;20034;-70
2022/01/16 10:50:13;;;;;;;5.72;2.50;;;;;;;;;;4981601;28;20069;-73
2022/01/16 10:53:06;;;;;;;5.07;2.53;;;;;;;;;;4981662;28;20178;-73
2022/01/16 10:55:33;;;;;;;7.07;3.13;;;;;;;;;;4982878;28;20046;-72
2022/01/16 10:58:03;;;;;;;4.07;2.30;;;;;;;;;;4982398;28;20076;-72
2022/01/16 11:00:30;;;;;;;5.50;2.75;;;;;;;;;;4994857;28;20026;-71
2022/01/16 11:02:58;;;;;;;4.38;2.67;;;;;;;;;;4999897;28;20495;-72
2022/01/16 11:05:26;;;;;;;3.25;1.98;;;;;;;;;;5003025;28;20579;-73
2022/01/16 11:08:00;;;;;;;4.22;2.08;;;;;;;;;;5003898;28;20018;-72
2022/01/16 11:10:34;;;;;;;3.72;2.30;;;;;;;;;;5003657;28;20018;-72
2022/01/16 11:13:04;;;;;;;5.57;2.22;;;;;;;;;;4986877;28;20049;-72
2022/01/16 11:15:31;;;;;;;6.15;2.22;;;;;;;;;;4990658;28;20026;-73
2022/01/16 11:17:57;;;;;;;4.70;2.00;;;;;;;;;;5004045;28;20091;-73
2022/01/16 11:20:28;;;;;;;5.05;1.90;;;;;;;;;;5004812;28;20049;-73
2022/01/16 11:22:57;;;;;;;5.47;2.00;;;;;;;;;;5000982;28;20398;-73
2022/01/16 11:25:31;;;;;;;4.85;2.70;;;;;;;;;;5005473;28;20045;-73
2022/01/16 11:28:02;;;;;;;5.78;2.78;;;;;;;;;;5003297;28;20034;-75
2022/01/16 11:30:29;;;;;;;6.28;3.50;;;;;;;;;;4988095;28;20065;-75
2022/01/16 11:32:56;;;;;;;6.90;4.88;;;;;;;;;;4985042;28;20023;-75
2022/01/16 11:35:22;;;;;;;10.80;5.40;;;;;;;;;;5000194;28;20092;-74
2022/01/16 11:37:48;;;;;;;9.07;4.90;;;;;;;;;;4987577;28;20193;-74
2022/01/16 11:40:27;;;;;;;6.03;3.70;;;;;;;;;;4986198;28;20058;-72
2022/01/16 11:43:12;;;;;;;8.05;4.57;;;;;;;;;;5003194;28;20477;-72
2022/01/16 11:45:45;;;;;;;9.98;5.25;;;;;;;;;;4987655;28;20073;-72
2022/01/16 11:48:12;;;;;;;8.18;3.60;;;;;;;;;;4984910;28;20057;-74
2022/01/16 11:50:38;;;;;;;6.30;4.15;;;;;;;;;;4999175;28;20037;-74
2022/01/16 11:53:04;;;;;;;5.43;2.95;;;;;;;;;;5004120;28;20026;-75
2022/01/16 11:55:34;;;;;;;4.45;2.25;;;;;;;;;;4988477;28;20031;-77
2022/01/16 11:58:01;;;;;;;4.13;2.13;;;;;;;;;;4983948;28;20483;-73
2022/01/16 12:00:42;;;;;;;4.22;2.03;;;;;;;;;;4991061;28;20029;-73
2022/01/16 12:03:28;;;;;;;5.00;3.13;;;;;;;;;;4984381;28;20046;-74
2022/01/16 12:06:14;;;;;;;12.73;7.68;;;;;;;;;;5000496;28;20038;-72
2022/01/16 12:08:45;;;;;;;11.90;5.38;;;;;;;;;;5002539;28;20087;-73
2022/01/16 12:11:31;;;;;;;7.03;2.78;;;;;;;;;;4984525;28;20054;-74
2022/01/16 12:13:58;;;;;;;7.22;3.45;;;;;;;;;;4995851;28;20026;-73
2022/01/16 12:16:33;;;;;;;4.90;2.47;;;;;;;;;;5003090;28;20088;-73
2022/01/16 12:19:19;;;;;;;5.45;2.88;;;;;;;;;;5000856;28;20466;-72
2022/01/16 12:21:55;;;;;;;3.03;2.10;;;;;;;;;;4993172;28;20140;-73
2022/01/16 12:24:32;;;;;;;4.00;2.38;;;;;;;;;;4994208;28;20490;-71
2022/01/16 12:27:18;;;;;;;7.18;3.00;;;;;;;;;;5001152;28;20718;-71
2022/01/16 12:30:03;;;;;;;5.57;2.95;;;;;;;;;;5003174;28;20036;-71
2022/01/16 12:32:48;;;;;;;7.00;3.00;;;;;;;;;;5001854;28;20176;-74
2022/01/16 12:35:14;;;;;;;5.32;3.08;;;;;;;;;;5000481;28;20029;-76
2022/01/16 12:37:43;;;;;;;4.13;2.33;;;;;;;;;;4999094;28;20458;-75
2022/01/16 12:40:10;;;;;;;4.20;2.30;;;;;;;;;;4999306;28;20072;-73
2022/01/16 12:42:36;;;;;;;3.38;2.10;;;;;;;;;;4993665;28;20037;-79
2022/01/16 12:45:02;;;;;;;3.65;2.63;;;;;;;;;;4991044;28;20049;-79
2022/01/16 12:47:28;;;;;;;6.03;2.28;;;;;;;;;;4982452;28;20054;-76
2022/01/16 12:49:54;;;;;;;3.55;2.03;;;;;;;;;;4985905;28;20085;-79
2022/01/16 12:52:21;;;;;;;7.50;2.53;;;;;;;;;;4985901;28;20034;-79
2022/01/16 12:54:50;;;;;;;4.28;2.08;;;;;;;;;;4981851;28;20190;-80
2022/01/16 12:57:26;;;;;;;5.15;2.00;;;;;;;;;;4982015;28;20030;-80
2022/01/16 12:59:52;;;;;;;4.28;2.00;;;;;;;;;;4993972;28;20030;-78
2022/01/16 13:02:18;;;;;;;6.72;2.05;;;;;;;;;;4991491;28;20049;-79
2022/01/16 13:04:46;;;;;;;2.85;1.98;;;;;;;;;;4980765;28;20034;-79
2022/01/16 13:07:15;;;;;;;6.15;2.15;;;;;;;;;;4981206;28;20033;-79
2022/01/16 13:09:41;;;;;;;5.65;2.15;;;;;;;;;;4981361;28;20023;-78
2022/01/16 13:12:12;;;;;;;5.50;2.05;;;;;;;;;;4981245;28;20101;-78
2022/01/16 13:14:40;;;;;;;4.78;1.90;;;;;;;;;;4986856;28;20080;-79
2022/01/16 13:17:10;;;;;;;4.15;2.28;;;;;;;;;;5000666;28;20029;-79
2022/01/16 13:19:39;;;;;;;2.72;1.80;;;;;;;;;;4999841;28;20521;-79
2022/01/16 13:24:47;;;;;;;3.92;2.00;;;;;;;;;;4999216;28;20030;-78
2022/01/16 13:27:19;;;;;;;6.75;2.53;;;;;;;;;;5000837;28;20106;-79
2022/01/16 13:29:47;;;;;;;4.10;2.10;;;;;;;;;;5000708;28;20026;-79
2022/01/16 13:32:15;;;;;;;4.28;2.00;;;;;;;;;;5000621;28;20022;-80
2022/01/16 13:34:49;;;;;;;4.80;2.20;;;;;;;;;;5000285;28;20049;-78
2022/01/16 13:37:17;;;;;;;4.20;2.08;;;;;;;;;;5000258;28;20509;-78
2022/01/16 13:39:45;;;;;;;3.58;2.03;;;;;;;;;;4998749;28;20030;-79
2022/01/16 13:42:29;;;;;;;4.40;2.10;;;;;;;;;;4999863;28;20119;-79
2022/01/16 13:45:13;;;;;;;6.88;2.53;;;;;;;;;;4989822;28;20034;-78
2022/01/16 13:47:39;;;;;;;6.40;3.08;;;;;;;;;;4980539;28;20050;-79
2022/01/16 13:50:12;;;;;;;7.07;4.38;;;;;;;;;;4980570;28;20113;-79
2022/01/16 13:52:50;;;;;;;14.38;8.90;;;;;;;;;;4978870;28;20166;-79
2022/01/16 13:55:16;;;;;;;9.57;5.75;;;;;;;;;;4994738;28;20029;-77
2022/01/16 13:57:42;;;;;;;11.52;7.50;;;;;;;;;;4999811;28;20491;-78
2022/01/16 14:00:10;;;;;;;8.40;5.68;;;;;;;;;;4984065;28;20483;-74
2022/01/16 14:02:37;;;;;;;11.55;5.97;;;;;;;;;;4985103;28;20030;-85
2022/01/16 14:05:03;;;;;;;21.77;12.07;;;;;;;;;;4979555;28;20038;-80
2022/01/16 14:07:29;;;;;;;11.00;5.10;;;;;;;;;;4979269;28;20034;-84
2022/01/16 14:09:56;;;;;;;493.77;40.58;;;;;;;;;;4981093;28;20026;-85
2022/01/16 14:12:26;;;;;;;6.65;3.25;;;;;;;;;;4980431;28;20423;-77
2022/01/16 14:14:52;;;;;;;4.32;3.17;;;;;;;;;;4979100;28;20109;-77
2022/01/16 14:22:19;;;;;;;8.00;3.20;;;;;;;;;;4978583;28;20089;-78
2022/01/16 14:24:52;;;;;;;7.22;3.50;;;;;;;;;;4980250;28;20054;-77
2022/01/16 14:27:19;;;;;;;5.40;3.15;;;;;;;;;;4992129;28;20097;-76
2022/01/16 14:29:46;;;;;;;7.35;3.58;;;;;;;;;;5001156;28;20045;-76
2022/01/16 14:32:12;;;;;;;5.82;3.38;;;;;;;;;;4980155;28;20535;-76
2022/01/16 14:34:40;;;;;;;5.00;2.95;;;;;;;;;;4982290;28;20033;-76
2022/01/16 14:37:07;;;;;;;6.35;2.50;;;;;;;;;;4982116;28;20030;-76
2022/01/16 14:39:34;;;;;;;7.30;2.80;;;;;;;;;;4983336;28;20029;-77
2022/01/16 14:42:01;;;;;;;9.45;3.03;;;;;;;;;;4996662;28;20371;-78
2022/01/16 14:44:28;;;;;;;18.23;5.80;;;;;;;;;;4989637;28;20026;-76
2022/01/16 14:46:55;;;;;;;12.90;4.97;;;;;;;;;;4994687;28;20046;-78
2022/01/16 14:49:21;;;;;;;20.35;5.22;;;;;;;;;;4985310;28;20022;-78
2022/01/16 14:51:48;;;;;;;9.20;3.72;;;;;;;;;;4992843;28;20049;-76
2022/01/16 14:54:15;;;;;;;7.35;3.80;;;;;;;;;;4992244;28;20031;-76
2022/01/16 14:56:41;;;;;;;5.93;2.80;;;;;;;;;;4998347;28;20058;-78
2022/01/16 14:59:08;;;;;;;8.15;2.92;;;;;;;;;;5001602;28;20088;-76
2022/01/16 15:01:34;;;;;;;8.27;3.17;;;;;;;;;;4980357;28;20080;-76
2022/01/16 15:04:01;;;;;;;6.28;2.78;;;;;;;;;;4979615;28;20034;-76
2022/01/16 15:06:28;;;;;;;9.15;2.78;;;;;;;;;;4981749;28;20133;-76
2022/01/16 15:08:57;;;;;;;11.35;2.95;;;;;;;;;;4981870;28;20268;-75
2022/01/16 15:11:23;;;;;;;8.07;3.90;;;;;;;;;;4983480;28;20031;-76
2022/01/16 15:13:49;;;;;;;5.25;2.50;;;;;;;;;;4982001;28;20031;-76
2022/01/16 15:16:23;;;;;;;10.00;2.83;;;;;;;;;;4982874;28;20031;-76
2022/01/16 15:18:51;;;;;;;9.65;2.42;;;;;;;;;;4983760;28;20027;-77
2022/01/16 15:21:17;;;;;;;5.93;2.83;;;;;;;;;;4983384;28;20042;-78
2022/01/16 15:23:44;;;;;;;5.47;2.53;;;;;;;;;;4989872;28;20025;-75
2022/01/16 15:26:10;;;;;;;6.25;2.17;;;;;;;;;;4985517;28;20042;-75
2022/01/16 15:28:36;;;;;;;5.47;2.17;;;;;;;;;;4996478;28;20040;-75
2022/01/16 15:31:02;;;;;;;5.55;2.50;;;;;;;;;;4990898;28;20157;-75
2022/01/16 15:33:29;;;;;;;5.38;2.83;;;;;;;;;;4996666;28;20113;-73
2022/01/16 15:35:55;;;;;;;5.38;2.33;;;;;;;;;;4988074;28;20030;-74
2022/01/16 15:38:29;;;;;;;5.22;3.47;;;;;;;;;;4997245;28;20029;-75
2022/01/16 15:40:56;;;;;;;7.20;2.53;;;;;;;;;;4998231;28;20276;-72
2022/01/16 15:43:22;;;;;;;6.28;2.30;;;;;;;;;;4992526;28;20034;-71
2022/01/16 15:45:48;;;;;;;8.93;2.97;;;;;;;;;;4998246;28;20482;-71
2022/01/16 15:48:15;;;;;;;4.03;1.90;;;;;;;;;;4986651;28;20061;-71